South Range, Michigan
Current Conditions -  °F | °C
As of 1:53 AM on Saturday 01 Nov 2014 (Local Time) from KCMX Reporting Station
Few Clouds Few Clouds  
Wind Chill: 21°   Ceiling: Unl
Heat Index: 21°   Visibility: 10mi
Dew Point: 17°   Wind: 0mph
Humidity: 85%   Direction: NA
Pressure: 30.42"   Gusts: NA
Location:  47.07°N, 88.64°W
Report Text: KCMX 010553Z AUTO 00000KT 10SM FEW028 M06/M08 A3042 RMK AO2 SLP317 T10611083 11017 21067 58007
Loading
Personal Weather Stations






























Interactive Weather Map New forecast layout! Learn more

10-Day Weather Forecast

Advertisements
Track Severe Weather on mobile